Aérodrome :
LOGIN :

S'inscrire | Disclaimer

   EN    FR    IT 

 










Légende :    VFR   VFR Marginal   IFR   IFR Intensif   IFR Très Intensif
Visi : 
Plafond : 
>= 8 km
>= 3000ft
5 à 8 km
1000 à 3000 ft
1500m à 5 km
500 à 1000 ft
800 à 1500m
200 à 500 ft
< 800m
< 200 ft
Symboles :   Orages  Brouillard  Fortes neiges  Fortes précipitations  Vent > 20 kt
SIGMETs :   Divers  Orages  Givrage  Turbulence  Onde Orograph.  Cendres Volcan.






- Altitude de l'aérodrome : 961 ft
- Code IATA : VIN


UKWW - Gavryshivka

DERNIER METAR :
  • 171700Z 13005MPS 9000 OVC008 08/06 Q1025 NOSIG

METARs EXPIRÉS :
  • 171630Z 13005MPS 8000 OVC007 07/06 Q1025 NOSIG
  • 171600Z 12004MPS 090V150 8000 OVC007 07/06 Q1025 NOSIG
  • 171530Z 13005MPS 9999 OVC007 08/06 Q1025 NOSIG
  • 171500Z 13005MPS 9999 OVC009 08/06 Q1025 NOSIG
  • 171430Z 13005MPS 9999 OVC009 08/06 Q1025 NOSIG

TAF TAF UKWW
Valide du 17 à 15h jusqu'au 18 à 00h UTC


171410Z 1715/1724 13005G10MPS 6000 OVC007
TEMPO 1718/1724 1500 BR BKN005



MET'MAP, la Météo Aéronautique d'un coup d'oeil ! - Copyright ORBIFLY Décembre 2007 - Disclaimer

ORBIFLY MET'MAP TEAM :

Programmation & Développement : Alexandra Zaïnal
Conception & Développement : Baudouin d'Aumeries
Co-Programmation & Développement : Marc-Olivier Méhu
Soutien technique & logistique : Manuel Goepfert

Contact : metmap@orbifly.com




SOURCES & CREDITS :

   NOAA